createdAt,value
2023-06-18T00:00:41.982Z,51.07
2023-06-18T00:03:08.651Z,51.15
2023-06-18T00:05:35.549Z,51.20
2023-06-18T00:08:02.334Z,51.35
2023-06-18T00:10:29.017Z,50.89
2023-06-18T00:12:55.560Z,50.89
2023-06-18T00:15:22.340Z,50.94
2023-06-18T00:17:49.005Z,50.42
2023-06-18T00:20:16.008Z,50.40
2023-06-18T00:22:43.066Z,50.26
2023-06-18T00:25:09.757Z,50.49
2023-06-18T00:27:36.516Z,50.36
2023-06-18T00:30:05.170Z,50.74
2023-06-18T00:32:32.375Z,51.21
2023-06-18T00:35:01.797Z,51.06
2023-06-18T00:37:29.183Z,51.67
2023-06-18T00:39:56.370Z,51.82
2023-06-18T00:42:23.128Z,51.63
2023-06-18T00:44:49.671Z,52.34
2023-06-18T00:47:18.733Z,52.64
2023-06-18T00:49:46.538Z,53.38
2023-06-18T00:52:14.092Z,53.66
2023-06-18T00:54:47.290Z,53.27
2023-06-18T00:57:16.353Z,53.84
2023-06-18T00:59:48.284Z,53.83
2023-06-18T01:02:16.446Z,53.50
2023-06-18T01:04:44.544Z,54.42
2023-06-18T01:07:14.808Z,55.04
2023-06-18T01:09:45.615Z,54.83
2023-06-18T01:12:12.631Z,55.01
2023-06-18T01:14:40.316Z,55.37
2023-06-18T01:17:08.177Z,55.11
2023-06-18T01:19:39.307Z,55.61
2023-06-18T01:22:17.203Z,55.91
2023-06-18T01:24:51.722Z,55.88
2023-06-18T01:27:22.558Z,55.94
2023-06-18T01:29:51.675Z,55.39
2023-06-18T01:32:20.789Z,55.30
2023-06-18T01:34:48.966Z,55.64
2023-06-18T01:37:41.902Z,56.16
2023-06-18T01:40:37.932Z,56.31
2023-06-18T01:43:18.065Z,56.56
2023-06-18T01:46:11.695Z,57.20
2023-06-18T01:49:04.602Z,57.74
2023-06-18T01:51:53.325Z,57.21
2023-06-18T01:54:41.675Z,56.92
2023-06-18T01:57:29.369Z,56.93
2023-06-18T02:00:16.192Z,57.55
2023-06-18T02:02:44.194Z,57.58
2023-06-18T02:05:11.336Z,57.98
2023-06-18T02:07:37.825Z,58.48
2023-06-18T02:10:04.937Z,58.87
2023-06-18T02:12:31.500Z,58.69
2023-06-18T02:14:58.891Z,58.26
2023-06-18T02:17:27.314Z,58.07
2023-06-18T02:19:54.154Z,58.01
2023-06-18T02:22:20.981Z,58.38
2023-06-18T02:24:47.698Z,59.01
2023-06-18T02:27:14.588Z,59.35
2023-06-18T02:29:42.806Z,59.53
2023-06-18T02:32:11.631Z,59.03
2023-06-18T02:34:38.821Z,59.35
2023-06-18T02:37:07.969Z,59.37
2023-06-18T02:39:36.986Z,58.94
2023-06-18T02:42:04.125Z,59.29
2023-06-18T02:44:32.657Z,60.02
2023-06-18T02:46:59.329Z,59.35
2023-06-18T02:49:26.123Z,58.92
2023-06-18T02:51:52.908Z,59.13
2023-06-18T02:54:19.512Z,59.79
2023-06-18T02:56:46.248Z,61.27
2023-06-18T02:59:12.832Z,62.02
2023-06-18T03:01:40.606Z,61.74
2023-06-18T03:04:07.649Z,61.97
2023-06-18T03:06:35.017Z,62.18
2023-06-18T03:09:03.377Z,62.05
2023-06-18T03:11:30.056Z,62.81
2023-06-18T03:13:58.178Z,62.71
2023-06-18T03:16:24.968Z,63.92
2023-06-18T03:18:51.755Z,64.05
2023-06-18T03:21:19.552Z,65.15
2023-06-18T03:23:47.200Z,66.26
2023-06-18T03:26:13.871Z,66.16
2023-06-18T03:28:40.787Z,65.95
2023-06-18T03:31:08.283Z,65.66
2023-06-18T03:33:34.983Z,65.87
2023-06-18T03:36:04.154Z,67.29
2023-06-18T03:38:33.835Z,67.56
2023-06-18T03:41:03.828Z,67.06
2023-06-18T03:43:31.098Z,65.34
2023-06-18T03:45:59.378Z,65.46
2023-06-18T03:48:26.211Z,66.61
2023-06-18T03:50:53.121Z,66.24
2023-06-18T03:53:19.618Z,67.52
2023-06-18T03:55:47.885Z,68.33
2023-06-18T03:58:19.009Z,67.81
2023-06-18T04:00:47.399Z,68.65
2023-06-18T04:03:14.520Z,67.76
2023-06-18T04:05:41.171Z,67.49
2023-06-18T04:08:08.412Z,66.95
2023-06-18T04:10:35.312Z,66.85
2023-06-18T04:13:03.201Z,67.42
2023-06-18T04:15:30.098Z,67.29
2023-06-18T04:17:57.781Z,68.23
2023-06-18T04:20:24.898Z,68.46
2023-06-18T04:22:51.705Z,68.31
2023-06-18T04:25:21.143Z,67.96
2023-06-18T04:27:49.641Z,68.94
2023-06-18T04:30:16.512Z,68.01
2023-06-18T04:32:43.312Z,67.30
2023-06-18T04:35:10.570Z,66.99
2023-06-18T04:37:37.755Z,66.61
2023-06-18T04:40:06.698Z,67.53
2023-06-18T04:42:34.243Z,67.15
2023-06-18T04:45:00.873Z,67.20
2023-06-18T04:47:27.755Z,66.57
2023-06-18T04:49:54.728Z,67.63
2023-06-18T04:52:21.342Z,67.28
2023-06-18T04:54:49.191Z,66.90
2023-06-18T04:57:17.320Z,68.03
2023-06-18T04:59:43.940Z,69.08
2023-06-18T05:02:11.187Z,69.30
2023-06-18T05:04:37.839Z,69.59
2023-06-18T05:07:04.646Z,69.45
2023-06-18T05:09:33.650Z,69.60
2023-06-18T05:12:00.434Z,68.44
2023-06-18T05:14:28.589Z,68.64
2023-06-18T05:16:55.524Z,69.44
2023-06-18T05:19:22.091Z,69.55
2023-06-18T05:21:48.837Z,69.52
2023-06-18T05:24:16.061Z,70.02
2023-06-18T05:26:43.694Z,69.06
2023-06-18T05:29:10.371Z,69.55
2023-06-18T05:31:37.368Z,69.39
2023-06-18T05:34:08.047Z,69.06
2023-06-18T05:36:34.590Z,68.31
2023-06-18T05:39:01.538Z,67.22
2023-06-18T05:41:30.051Z,66.82
2023-06-18T05:43:57.824Z,66.65
2023-06-18T05:46:24.357Z,66.72
2023-06-18T05:48:51.157Z,66.24
2023-06-18T05:51:19.443Z,64.59
2023-06-18T05:53:46.432Z,63.73
2023-06-18T05:56:14.709Z,62.55
2023-06-18T05:58:41.808Z,61.93
2023-06-18T06:01:08.406Z,60.72
2023-06-18T06:03:36.652Z,59.03
2023-06-18T06:06:03.813Z,57.98
2023-06-18T06:08:32.087Z,58.04
2023-06-18T06:11:01.232Z,58.67
2023-06-18T06:13:28.132Z,58.20
2023-06-18T06:15:58.843Z,59.32
2023-06-18T06:18:25.559Z,59.29
2023-06-18T06:20:52.080Z,60.41
2023-06-18T06:23:18.768Z,59.53
2023-06-18T06:25:45.646Z,59.43
2023-06-18T06:28:12.689Z,60.49
2023-06-18T06:30:39.558Z,61.21
2023-06-18T06:33:07.641Z,62.37
2023-06-18T06:35:34.663Z,61.50
2023-06-18T06:38:01.276Z,60.78
2023-06-18T06:40:28.195Z,60.20
2023-06-18T06:42:55.297Z,59.15
2023-06-18T06:45:31.216Z,58.67
2023-06-18T06:48:04.484Z,57.87
2023-06-18T06:50:54.003Z,57.78
2023-06-18T06:53:24.399Z,57.16
2023-06-18T06:55:51.622Z,56.42
2023-06-18T06:58:21.285Z,56.30
2023-06-18T07:00:48.012Z,55.50
2023-06-18T07:03:14.897Z,55.02
2023-06-18T07:05:41.770Z,54.80
2023-06-18T07:08:08.565Z,54.46
2023-06-18T07:10:36.008Z,54.55
2023-06-18T07:13:02.627Z,53.50
2023-06-18T07:15:29.373Z,52.64
2023-06-18T07:17:56.022Z,52.24
2023-06-18T07:20:23.098Z,52.09
2023-06-18T07:22:49.824Z,52.51
2023-06-18T07:25:16.737Z,52.38
2023-06-18T07:27:43.264Z,52.76
2023-06-18T07:30:10.652Z,52.72
2023-06-18T07:32:37.278Z,52.04
2023-06-18T07:35:04.165Z,51.53
2023-06-18T07:37:30.850Z,52.03
2023-06-18T07:39:57.637Z,53.27
2023-06-18T07:42:24.605Z,52.73
2023-06-18T07:44:52.845Z,51.01
2023-06-18T07:47:19.942Z,48.63
2023-06-18T07:49:46.514Z,48.28
2023-06-18T07:52:13.222Z,48.54
2023-06-18T07:54:39.889Z,48.77
2023-06-18T07:57:06.708Z,47.89
2023-06-18T07:59:33.236Z,47.58
2023-06-18T08:02:00.202Z,48.00
2023-06-18T08:04:26.884Z,48.34
2023-06-18T08:06:53.643Z,47.77
2023-06-18T08:09:20.161Z,47.84
2023-06-18T08:11:46.817Z,48.00
2023-06-18T08:14:13.343Z,46.46
2023-06-18T08:16:40.480Z,46.34
2023-06-18T08:19:07.303Z,46.21
2023-06-18T08:21:33.895Z,46.57
2023-06-18T08:24:00.605Z,45.88
2023-06-18T08:26:27.213Z,44.68
2023-06-18T08:28:53.990Z,44.00
2023-06-18T08:31:21.755Z,43.64
2023-06-18T08:33:50.043Z,44.56
2023-06-18T08:36:22.118Z,43.41
2023-06-18T08:38:49.261Z,43.01
2023-06-18T08:41:16.176Z,41.99
2023-06-18T08:43:42.933Z,41.83
2023-06-18T08:46:11.607Z,41.82
2023-06-18T08:48:44.231Z,40.72
2023-06-18T08:51:12.607Z,41.71
2023-06-18T08:53:42.171Z,41.72
2023-06-18T08:56:10.030Z,41.38
2023-06-18T08:58:51.027Z,40.05
2023-06-18T09:01:17.983Z,39.80
2023-06-18T09:03:45.986Z,39.12
2023-06-18T09:06:13.764Z,39.09
2023-06-18T09:08:40.665Z,39.83
2023-06-18T09:11:08.075Z,38.91
2023-06-18T09:13:41.017Z,37.55
2023-06-18T09:16:08.516Z,37.08
2023-06-18T09:18:35.131Z,36.73
2023-06-18T09:21:04.366Z,37.70
2023-06-18T09:23:31.849Z,36.62
2023-06-18T09:25:59.130Z,35.76
2023-06-18T09:28:27.672Z,35.22
2023-06-18T09:31:00.194Z,35.55
2023-06-18T09:33:36.982Z,36.34
2023-06-18T09:36:08.613Z,34.94
2023-06-18T09:38:42.800Z,35.17
2023-06-18T09:41:13.768Z,34.40
2023-06-18T09:43:42.319Z,33.68
2023-06-18T09:46:09.467Z,33.52
2023-06-18T09:48:39.515Z,34.11
2023-06-18T09:51:06.408Z,32.63
2023-06-18T09:53:35.114Z,32.49
2023-06-18T09:56:16.410Z,32.15
2023-06-18T09:58:50.398Z,31.13
2023-06-18T10:01:18.694Z,30.45
2023-06-18T10:03:46.182Z,30.00
2023-06-18T10:06:19.097Z,30.33
2023-06-18T10:08:51.639Z,29.86
2023-06-18T10:11:19.960Z,28.84
2023-06-18T10:13:59.213Z,27.86
2023-06-18T10:16:27.865Z,26.06
2023-06-18T10:19:09.808Z,26.61
2023-06-18T10:21:40.065Z,26.18
2023-06-18T10:24:13.574Z,25.74
2023-06-18T10:26:42.295Z,26.12
2023-06-18T10:29:11.310Z,25.43
2023-06-18T10:31:38.690Z,26.20
2023-06-18T10:34:05.944Z,25.92
2023-06-18T10:36:33.869Z,26.04
2023-06-18T10:39:02.250Z,25.15
2023-06-18T10:41:28.749Z,24.31
2023-06-18T10:43:56.319Z,23.32
2023-06-18T10:46:23.779Z,23.70
2023-06-18T10:49:14.859Z,22.56
2023-06-18T10:51:43.105Z,23.58
2023-06-18T10:54:24.190Z,23.79
2023-06-18T10:56:53.840Z,23.75
2023-06-18T10:59:36.882Z,23.04
2023-06-18T11:02:03.939Z,23.73
2023-06-18T11:04:32.501Z,22.92
2023-06-18T11:07:24.502Z,22.65
2023-06-18T11:09:59.586Z,23.05
2023-06-18T11:12:30.802Z,23.37
2023-06-18T11:15:07.841Z,23.09
2023-06-18T11:17:34.807Z,22.85
2023-06-18T11:20:02.826Z,23.31
2023-06-18T11:22:29.540Z,24.27
2023-06-18T11:25:01.289Z,23.29
2023-06-18T11:27:28.703Z,22.90
2023-06-18T11:29:59.693Z,23.20
2023-06-18T11:32:27.107Z,23.24
2023-06-18T11:34:57.549Z,22.02
2023-06-18T11:37:29.071Z,22.25
2023-06-18T11:39:57.292Z,21.86
2023-06-18T11:42:27.117Z,22.02
2023-06-18T11:44:59.048Z,20.82
2023-06-18T11:47:25.716Z,21.96
2023-06-18T11:49:52.884Z,21.66
2023-06-18T11:52:22.617Z,21.29
2023-06-18T11:54:49.911Z,21.33
2023-06-18T11:57:19.890Z,21.66
2023-06-18T11:59:50.968Z,21.45
2023-06-18T12:02:19.355Z,21.65
2023-06-18T12:04:46.614Z,22.42
2023-06-18T12:07:18.049Z,21.79
2023-06-18T12:09:45.751Z,21.73
2023-06-18T12:12:15.388Z,21.66
2023-06-18T12:14:47.369Z,21.83
2023-06-18T12:17:30.752Z,22.06
2023-06-18T12:20:05.385Z,22.31
2023-06-18T12:22:32.380Z,20.96
2023-06-18T12:24:59.104Z,20.11
2023-06-18T12:27:26.532Z,19.21
2023-06-18T12:29:58.598Z,19.90
2023-06-18T12:32:25.217Z,18.71
2023-06-18T12:34:51.943Z,19.70
2023-06-18T12:37:18.426Z,18.53
2023-06-18T12:40:20.948Z,18.80
2023-06-18T12:42:48.254Z,18.85
2023-06-18T12:45:16.742Z,17.95
2023-06-18T12:47:47.435Z,17.98
2023-06-18T12:50:26.060Z,17.85
2023-06-18T12:52:53.878Z,17.39
2023-06-18T12:55:22.929Z,16.99
2023-06-18T12:57:50.371Z,16.69
2023-06-18T13:00:18.802Z,16.50
2023-06-18T13:02:47.191Z,17.49
2023-06-18T13:05:14.367Z,17.95
2023-06-18T13:07:49.990Z,18.85
2023-06-18T13:10:16.480Z,17.20
2023-06-18T13:12:43.282Z,17.62
2023-06-18T13:15:10.675Z,18.34
2023-06-18T13:17:37.993Z,17.41
2023-06-18T13:20:06.254Z,16.72
2023-06-18T13:22:32.776Z,16.51
2023-06-18T13:25:00.006Z,16.44
2023-06-18T13:27:27.661Z,16.76
2023-06-18T13:29:54.403Z,17.83
2023-06-18T13:32:21.409Z,17.91
2023-06-18T13:34:49.892Z,16.62
2023-06-18T13:37:17.197Z,17.45
2023-06-18T13:39:47.209Z,17.83
2023-06-18T13:42:15.451Z,16.08
2023-06-18T13:44:42.799Z,16.71
2023-06-18T13:47:09.936Z,16.14
2023-06-18T13:49:36.511Z,16.02
2023-06-18T13:52:05.268Z,16.28
2023-06-18T13:54:32.115Z,15.91
2023-06-18T13:56:58.817Z,15.67
2023-06-18T13:59:25.640Z,17.34
2023-06-18T14:01:52.074Z,16.47
2023-06-18T14:04:19.590Z,16.08
2023-06-18T14:06:46.549Z,16.80
2023-06-18T14:09:16.864Z,17.25
2023-06-18T14:11:45.480Z,15.35
2023-06-18T14:14:12.078Z,15.80
2023-06-18T14:16:38.935Z,16.12
2023-06-18T14:19:05.549Z,15.83
2023-06-18T14:21:32.179Z,16.70
2023-06-18T14:24:03.988Z,17.04
2023-06-18T14:26:31.407Z,15.75
2023-06-18T14:28:58.102Z,15.17
2023-06-18T14:31:24.744Z,15.08
2023-06-18T14:34:07.897Z,15.32
2023-06-18T14:36:38.560Z,15.00
2023-06-18T14:39:06.904Z,14.69
2023-06-18T14:41:33.465Z,14.93
2023-06-18T14:44:00.404Z,15.36
2023-06-18T14:46:27.246Z,16.55
2023-06-18T14:48:53.769Z,17.32
2023-06-18T14:51:20.729Z,16.37
2023-06-18T14:53:51.960Z,16.04
2023-06-18T14:56:19.658Z,16.42
2023-06-18T14:58:46.445Z,16.51
2023-06-18T15:01:13.017Z,15.75
2023-06-18T15:03:39.807Z,14.93
2023-06-18T15:06:08.976Z,14.79
2023-06-18T15:08:35.737Z,14.70
2023-06-18T15:11:02.400Z,15.42
2023-06-18T15:13:31.793Z,15.13
2023-06-18T15:16:01.287Z,14.46
2023-06-18T15:18:27.909Z,15.37
2023-06-18T15:20:54.759Z,16.73
2023-06-18T15:23:24.613Z,15.59
2023-06-18T15:25:51.078Z,15.82
2023-06-18T15:28:17.891Z,15.57
2023-06-18T15:30:44.410Z,15.37
2023-06-18T15:33:11.121Z,16.87
2023-06-18T15:35:37.676Z,17.47
2023-06-18T15:38:09.941Z,17.65
2023-06-18T15:40:37.577Z,17.66
2023-06-18T15:43:04.155Z,17.83
2023-06-18T15:45:30.827Z,17.62
2023-06-18T15:47:57.468Z,17.69
2023-06-18T15:50:23.995Z,17.52
2023-06-18T15:52:51.718Z,17.63
2023-06-18T15:55:19.991Z,17.82
2023-06-18T15:57:48.932Z,17.84
2023-06-18T16:00:15.621Z,17.99
2023-06-18T16:02:42.098Z,17.97
2023-06-18T16:05:10.943Z,18.46
2023-06-18T16:07:37.802Z,18.86
2023-06-18T16:10:04.371Z,18.49
2023-06-18T16:12:31.051Z,19.19
2023-06-18T16:14:57.502Z,18.86
2023-06-18T16:17:23.974Z,19.17
2023-06-18T16:19:50.598Z,19.51
2023-06-18T16:22:17.149Z,19.25
2023-06-18T16:24:43.799Z,19.90
2023-06-18T16:27:10.742Z,19.76
2023-06-18T16:29:37.273Z,19.27
2023-06-18T16:32:11.560Z,19.58
2023-06-18T16:34:38.757Z,20.10
2023-06-18T16:37:05.691Z,20.69
2023-06-18T16:39:33.724Z,21.29
2023-06-18T16:42:00.255Z,21.86
2023-06-18T16:44:26.667Z,21.80
2023-06-18T16:46:53.436Z,21.64
2023-06-18T16:49:20.002Z,22.06
2023-06-18T16:51:46.697Z,23.00
2023-06-18T16:54:13.167Z,23.46
2023-06-18T16:56:40.018Z,23.59
2023-06-18T16:59:07.008Z,24.08
2023-06-18T17:01:33.608Z,24.55
2023-06-18T17:04:02.523Z,25.78
2023-06-18T17:06:29.103Z,25.50
2023-06-18T17:08:55.579Z,25.36
2023-06-18T17:11:22.627Z,25.44
2023-06-18T17:13:49.135Z,25.90
2023-06-18T17:16:15.676Z,26.77
2023-06-18T17:18:42.191Z,26.75
2023-06-18T17:21:08.765Z,27.37
2023-06-18T17:23:35.411Z,27.76
2023-06-18T17:26:02.041Z,28.45
2023-06-18T17:28:28.429Z,28.57
2023-06-18T17:30:54.820Z,28.83
2023-06-18T17:33:22.747Z,29.24
2023-06-18T17:35:49.213Z,29.37
2023-06-18T17:38:16.009Z,29.36
2023-06-18T17:40:42.519Z,29.31
2023-06-18T17:43:09.920Z,29.38
2023-06-18T17:45:36.710Z,29.58
2023-06-18T17:48:03.483Z,29.27
2023-06-18T17:50:30.124Z,29.46
2023-06-18T17:52:56.709Z,29.90
2023-06-18T17:55:23.330Z,29.95
2023-06-18T17:57:50.458Z,30.47
2023-06-18T18:00:17.103Z,31.09
2023-06-18T18:02:43.797Z,31.57
2023-06-18T18:05:11.016Z,31.37
2023-06-18T18:07:37.453Z,31.43
2023-06-18T18:10:04.434Z,31.24
2023-06-18T18:12:31.859Z,31.62
2023-06-18T18:14:58.252Z,31.78
2023-06-18T18:17:24.905Z,31.93
2023-06-18T18:19:51.400Z,32.33
2023-06-18T18:22:19.209Z,33.11
2023-06-18T18:24:46.234Z,33.39
2023-06-18T18:27:14.025Z,33.83
2023-06-18T18:29:40.534Z,33.51
2023-06-18T18:32:07.420Z,34.06
2023-06-18T18:34:33.818Z,34.13
2023-06-18T18:37:00.548Z,34.24
2023-06-18T18:39:26.931Z,34.45
2023-06-18T18:41:53.449Z,34.35
2023-06-18T18:44:19.876Z,34.94
2023-06-18T18:46:46.403Z,34.95
2023-06-18T18:49:13.038Z,35.40
2023-06-18T18:51:39.628Z,35.82
2023-06-18T18:54:07.702Z,35.96
2023-06-18T18:56:35.660Z,35.65
2023-06-18T18:59:03.796Z,35.76
2023-06-18T19:01:30.276Z,36.08
2023-06-18T19:03:56.759Z,36.21
2023-06-18T19:06:23.239Z,36.20
2023-06-18T19:08:50.730Z,36.62
2023-06-18T19:11:17.113Z,36.66
2023-06-18T19:13:43.664Z,37.32
2023-06-18T19:16:10.186Z,37.53
2023-06-18T19:18:37.952Z,37.38
2023-06-18T19:21:04.540Z,37.07
2023-06-18T19:23:31.057Z,38.00
2023-06-18T19:25:58.518Z,37.85
2023-06-18T19:28:26.015Z,37.59
2023-06-18T19:30:52.629Z,37.86
2023-06-18T19:33:19.220Z,38.24
2023-06-18T19:35:45.715Z,38.69
2023-06-18T19:38:12.446Z,38.75
2023-06-18T19:40:39.253Z,37.92
2023-06-18T19:43:05.738Z,37.19
2023-06-18T19:45:33.209Z,37.32
2023-06-18T19:47:59.949Z,37.29
2023-06-18T19:50:26.551Z,37.52
2023-06-18T19:52:53.151Z,38.16
2023-06-18T19:55:21.087Z,37.63
2023-06-18T19:57:47.848Z,38.00
2023-06-18T20:00:14.403Z,37.50
2023-06-18T20:02:43.165Z,37.12
2023-06-18T20:05:09.737Z,37.13
2023-06-18T20:07:36.221Z,37.29
2023-06-18T20:10:06.358Z,37.58
2023-06-18T20:12:33.676Z,37.86
2023-06-18T20:15:00.476Z,37.27
2023-06-18T20:17:27.178Z,37.59
2023-06-18T20:19:53.648Z,38.04
2023-06-18T20:22:20.441Z,38.33
2023-06-18T20:24:46.998Z,38.03
2023-06-18T20:27:13.583Z,38.54
2023-06-18T20:29:40.233Z,39.11
2023-06-18T20:32:07.321Z,38.94
2023-06-18T20:34:35.684Z,39.34
2023-06-18T20:37:02.090Z,38.77
2023-06-18T20:39:28.561Z,39.09
2023-06-18T20:41:55.028Z,38.89
2023-06-18T20:44:21.510Z,39.30
2023-06-18T20:46:48.086Z,39.20
2023-06-18T20:49:15.536Z,39.25
2023-06-18T20:51:42.484Z,39.45
2023-06-18T20:54:08.910Z,39.56
2023-06-18T20:56:35.418Z,39.16
2023-06-18T20:59:01.872Z,39.07
2023-06-18T21:01:31.897Z,39.21
2023-06-18T21:03:58.807Z,39.30
2023-06-18T21:06:25.207Z,39.14
2023-06-18T21:08:52.147Z,39.06
2023-06-18T21:11:19.085Z,38.80
2023-06-18T21:13:47.033Z,39.75
2023-06-18T21:16:14.149Z,39.70
2023-06-18T21:18:40.763Z,39.34
2023-06-18T21:21:07.451Z,39.93
2023-06-18T21:23:33.958Z,40.25
2023-06-18T21:26:00.656Z,40.33
2023-06-18T21:28:27.272Z,40.65
2023-06-18T21:30:54.244Z,41.12
2023-06-18T21:33:20.705Z,41.13
2023-06-18T21:35:48.697Z,41.16
2023-06-18T21:38:15.534Z,41.22
2023-06-18T21:40:42.071Z,41.29
2023-06-18T21:43:08.537Z,41.28
2023-06-18T21:45:35.245Z,40.96
2023-06-18T21:48:01.834Z,41.40
2023-06-18T21:50:28.480Z,41.16
2023-06-18T21:52:54.961Z,41.13
2023-06-18T21:55:21.794Z,41.36
2023-06-18T21:57:48.490Z,41.55
2023-06-18T22:00:15.188Z,41.52
2023-06-18T22:02:41.907Z,41.39
2023-06-18T22:05:08.390Z,41.39
2023-06-18T22:07:35.058Z,41.50
2023-06-18T22:10:02.070Z,41.82
2023-06-18T22:12:28.712Z,41.81
2023-06-18T22:14:55.463Z,41.69
2023-06-18T22:17:21.988Z,41.71
2023-06-18T22:19:48.461Z,42.08
2023-06-18T22:22:15.087Z,42.04
2023-06-18T22:24:41.707Z,42.02
2023-06-18T22:27:09.129Z,42.02
2023-06-18T22:29:35.739Z,42.28
2023-06-18T22:32:02.349Z,42.13
2023-06-18T22:34:41.142Z,42.30
2023-06-18T22:37:08.545Z,42.18
2023-06-18T22:39:34.996Z,42.79
2023-06-18T22:42:01.520Z,42.44
2023-06-18T22:44:27.933Z,42.04
2023-06-18T22:46:54.495Z,41.89
2023-06-18T22:49:20.991Z,40.91
2023-06-18T22:51:54.144Z,41.37
2023-06-18T22:54:20.660Z,41.34
2023-06-18T22:56:47.138Z,41.54
2023-06-18T22:59:13.816Z,41.83
2023-06-18T23:01:41.279Z,41.59
2023-06-18T23:04:07.831Z,41.69
2023-06-18T23:06:34.322Z,41.46
2023-06-18T23:09:00.749Z,41.67
2023-06-18T23:11:27.429Z,41.80
2023-06-18T23:13:53.987Z,42.16
2023-06-18T23:16:20.390Z,42.07
2023-06-18T23:18:47.151Z,42.46
2023-06-18T23:21:14.226Z,42.50
2023-06-18T23:23:40.854Z,42.34
2023-06-18T23:26:07.450Z,43.01
2023-06-18T23:28:34.046Z,42.33
2023-06-18T23:31:05.061Z,42.56
2023-06-18T23:33:32.045Z,42.08
2023-06-18T23:35:58.638Z,43.05
2023-06-18T23:38:25.259Z,43.20
2023-06-18T23:40:52.462Z,43.21
2023-06-18T23:43:19.747Z,42.84
2023-06-18T23:45:46.406Z,43.23
2023-06-18T23:48:12.922Z,43.22
2023-06-18T23:50:39.505Z,43.25
2023-06-18T23:53:05.946Z,43.86
2023-06-18T23:55:32.973Z,44.29
2023-06-18T23:57:59.434Z,44.55
